createdAt,value
2022-10-15T00:01:22.936Z,16.25
2022-10-15T00:03:50.044Z,16.13
2022-10-15T00:06:22.863Z,16.17
2022-10-15T00:08:49.936Z,16.18
2022-10-15T00:11:21.161Z,16.32
2022-10-15T00:13:49.099Z,16.25
2022-10-15T00:16:21.471Z,16.28
2022-10-15T00:18:49.199Z,16.16
2022-10-15T00:21:18.483Z,16.30
2022-10-15T00:23:46.600Z,16.27
2022-10-15T00:26:23.493Z,16.24
2022-10-15T00:28:53.285Z,16.36
2022-10-15T00:31:23.102Z,16.44
2022-10-15T00:33:52.011Z,16.41
2022-10-15T00:36:22.697Z,16.32
2022-10-15T00:38:51.035Z,16.38
2022-10-15T00:41:36.945Z,16.30
2022-10-15T00:44:29.514Z,16.33
2022-10-15T00:47:18.451Z,16.35
2022-10-15T00:50:03.863Z,16.26
2022-10-15T00:52:39.983Z,16.38
2022-10-15T00:55:31.106Z,16.41
2022-10-15T00:58:08.102Z,16.49
2022-10-15T01:00:35.313Z,16.36
2022-10-15T01:03:02.972Z,16.44
2022-10-15T01:05:30.551Z,16.39
2022-10-15T01:07:57.554Z,16.22
2022-10-15T01:10:54.527Z,16.44
2022-10-15T01:13:53.980Z,16.40
2022-10-15T01:16:43.154Z,16.40
2022-10-15T01:19:41.829Z,16.55
2022-10-15T01:22:52.878Z,16.55
2022-10-15T01:25:53.787Z,16.34
2022-10-15T01:28:42.359Z,16.46
2022-10-15T01:31:26.705Z,16.47
2022-10-15T01:34:11.658Z,16.50
2022-10-15T01:36:51.208Z,16.42
2022-10-15T01:39:32.751Z,16.30
2022-10-15T01:42:17.811Z,16.46
2022-10-15T01:45:16.514Z,16.43
2022-10-15T01:47:53.734Z,16.43
2022-10-15T01:50:25.407Z,16.49
2022-10-15T01:52:55.560Z,16.35
2022-10-15T01:55:25.161Z,16.42
2022-10-15T01:57:55.536Z,16.45
2022-10-15T02:00:23.527Z,16.36
2022-10-15T02:02:50.408Z,16.56
2022-10-15T02:05:35.542Z,16.60
2022-10-15T02:08:20.673Z,16.56
2022-10-15T02:11:06.189Z,16.56
2022-10-15T02:13:48.965Z,16.48
2022-10-15T02:16:27.790Z,16.61
2022-10-15T02:19:23.466Z,16.54
2022-10-15T02:22:09.494Z,16.57
2022-10-15T02:24:45.551Z,16.75
2022-10-15T02:27:16.208Z,16.51
2022-10-15T02:29:46.003Z,16.65
2022-10-15T02:32:15.805Z,16.64
2022-10-15T02:34:45.067Z,16.75
2022-10-15T02:37:13.039Z,16.83
2022-10-15T02:39:39.893Z,16.63
2022-10-15T02:42:07.095Z,16.79
2022-10-15T02:44:33.940Z,16.74
2022-10-15T02:47:00.871Z,16.74
2022-10-15T02:49:28.216Z,16.57
2022-10-15T02:51:55.706Z,16.70
2022-10-15T02:54:22.780Z,16.76
2022-10-15T02:56:49.841Z,16.70
2022-10-15T02:59:18.510Z,16.79
2022-10-15T03:01:46.071Z,16.85
2022-10-15T03:04:12.944Z,16.65
2022-10-15T03:06:40.210Z,16.63
2022-10-15T03:09:07.182Z,16.68
2022-10-15T03:11:34.082Z,16.81
2022-10-15T03:14:01.092Z,16.71
2022-10-15T03:16:27.992Z,16.85
2022-10-15T03:18:54.949Z,16.62
2022-10-15T03:21:21.851Z,16.70
2022-10-15T03:23:48.768Z,16.72
2022-10-15T03:26:15.705Z,16.77
2022-10-15T03:28:42.693Z,16.61
2022-10-15T03:31:09.625Z,16.76
2022-10-15T03:33:36.674Z,16.75
2022-10-15T03:36:04.173Z,16.69
2022-10-15T03:38:31.207Z,16.74
2022-10-15T03:40:58.251Z,16.80
2022-10-15T03:43:26.405Z,16.80
2022-10-15T03:45:53.676Z,16.89
2022-10-15T03:48:20.722Z,16.80
2022-10-15T03:50:47.682Z,16.89
2022-10-15T03:53:14.925Z,16.77
2022-10-15T03:55:41.854Z,16.74
2022-10-15T03:58:08.914Z,16.87
2022-10-15T04:00:35.883Z,16.84
2022-10-15T04:03:02.755Z,16.77
2022-10-15T04:05:30.121Z,16.65
2022-10-15T04:07:57.423Z,16.69
2022-10-15T04:10:24.909Z,16.85
2022-10-15T04:12:51.866Z,16.78
2022-10-15T04:15:18.775Z,16.77
2022-10-15T04:17:45.683Z,16.73
2022-10-15T04:20:12.738Z,16.81
2022-10-15T04:22:39.709Z,16.87
2022-10-15T04:25:07.285Z,16.81
2022-10-15T04:27:34.191Z,16.80
2022-10-15T04:30:01.062Z,16.74
2022-10-15T04:32:28.035Z,16.89
2022-10-15T04:34:54.947Z,16.87
2022-10-15T04:37:22.152Z,16.69
2022-10-15T04:39:49.194Z,16.80
2022-10-15T04:42:16.259Z,16.75
2022-10-15T04:44:43.197Z,16.85
2022-10-15T04:47:10.101Z,16.84
2022-10-15T04:49:37.006Z,16.87
2022-10-15T04:52:04.071Z,16.85
2022-10-15T04:54:31.016Z,16.87
2022-10-15T04:56:57.971Z,16.86
2022-10-15T04:59:26.267Z,16.83
2022-10-15T05:01:53.217Z,16.81
2022-10-15T05:04:20.137Z,16.76
2022-10-15T05:06:47.006Z,16.69
2022-10-15T05:09:14.042Z,16.69
2022-10-15T05:11:40.927Z,16.68
2022-10-15T05:14:09.159Z,16.73
2022-10-15T05:16:36.054Z,16.65
2022-10-15T05:19:06.746Z,16.68
2022-10-15T05:21:36.047Z,16.53
2022-10-15T05:24:04.056Z,16.53
2022-10-15T05:26:32.155Z,16.51
2022-10-15T05:29:00.146Z,16.63
2022-10-15T05:31:30.340Z,16.59
2022-10-15T05:33:57.638Z,16.60
2022-10-15T05:36:27.074Z,16.53
2022-10-15T05:38:57.669Z,16.55
2022-10-15T05:41:26.094Z,16.54
2022-10-15T05:43:56.162Z,16.55
2022-10-15T05:46:23.906Z,16.58
2022-10-15T05:48:54.440Z,16.64
2022-10-15T05:51:22.071Z,16.59
2022-10-15T05:53:56.198Z,16.72
2022-10-15T05:56:23.969Z,16.74
2022-10-15T05:58:51.974Z,16.65
2022-10-15T06:01:19.867Z,16.59
2022-10-15T06:03:47.254Z,16.57
2022-10-15T06:06:28.921Z,16.76
2022-10-15T06:08:55.965Z,16.74
2022-10-15T06:11:23.229Z,16.68
2022-10-15T06:13:50.312Z,16.74
2022-10-15T06:16:22.545Z,16.69
2022-10-15T06:18:53.598Z,16.81
2022-10-15T06:21:20.833Z,16.68
2022-10-15T06:23:47.705Z,16.82
2022-10-15T06:26:14.646Z,16.83
2022-10-15T06:28:41.628Z,16.78
2022-10-15T06:31:09.138Z,16.76
2022-10-15T06:33:37.000Z,16.79
2022-10-15T06:36:10.129Z,16.81
2022-10-15T06:38:37.537Z,16.86
2022-10-15T06:41:08.515Z,16.83
2022-10-15T06:43:35.971Z,16.88
2022-10-15T06:46:04.760Z,16.73
2022-10-15T06:48:32.713Z,16.81
2022-10-15T06:51:01.323Z,17.03
2022-10-15T06:53:29.446Z,16.68
2022-10-15T06:56:02.159Z,16.66
2022-10-15T06:58:29.582Z,16.74
2022-10-15T07:01:07.684Z,16.65
2022-10-15T07:03:36.043Z,16.70
2022-10-15T07:06:05.482Z,16.55
2022-10-15T07:08:32.876Z,16.62
2022-10-15T07:11:06.083Z,16.56
2022-10-15T07:13:33.201Z,16.54
2022-10-15T07:16:05.843Z,16.46
2022-10-15T07:18:33.745Z,16.61
2022-10-15T07:21:01.348Z,16.55
2022-10-15T07:23:28.599Z,16.59
2022-10-15T07:25:59.046Z,16.67
2022-10-15T07:28:26.461Z,16.68
2022-10-15T07:30:53.760Z,16.65
2022-10-15T07:33:20.966Z,16.70
2022-10-15T07:35:48.322Z,16.75
2022-10-15T07:38:15.293Z,16.86
2022-10-15T07:40:42.258Z,16.96
2022-10-15T07:43:09.291Z,16.78
2022-10-15T07:45:36.470Z,16.72
2022-10-15T07:48:03.893Z,16.75
2022-10-15T07:50:34.266Z,16.81
2022-10-15T07:53:03.245Z,16.72
2022-10-15T07:55:30.133Z,16.71
2022-10-15T07:57:59.020Z,16.79
2022-10-15T08:00:26.593Z,16.84
2022-10-15T08:02:53.568Z,16.97
2022-10-15T08:05:20.474Z,16.84
2022-10-15T08:07:47.428Z,16.91
2022-10-15T08:10:14.358Z,16.90
2022-10-15T08:12:41.598Z,16.91
2022-10-15T08:15:09.059Z,17.02
2022-10-15T08:17:36.095Z,16.92
2022-10-15T08:20:03.458Z,16.88
2022-10-15T08:22:30.429Z,16.89
2022-10-15T08:24:57.299Z,16.99
2022-10-15T08:27:24.192Z,17.01
2022-10-15T08:29:51.052Z,17.03
2022-10-15T08:32:18.050Z,17.12
2022-10-15T08:34:45.826Z,17.17
2022-10-15T08:39:44.795Z,17.24
2022-10-15T08:42:32.578Z,17.08
2022-10-15T08:45:05.777Z,16.97
2022-10-15T08:47:51.328Z,16.96
2022-10-15T08:50:39.622Z,16.96
2022-10-15T08:53:12.804Z,16.97
2022-10-15T08:55:44.775Z,17.02
2022-10-15T08:58:47.099Z,17.21
2022-10-15T09:01:32.023Z,17.10
2022-10-15T09:04:23.230Z,17.23
2022-10-15T09:07:00.306Z,17.18
2022-10-15T09:10:14.546Z,17.13
2022-10-15T09:13:03.555Z,17.14
2022-10-15T09:15:38.776Z,17.36
2022-10-15T09:18:17.630Z,17.37
2022-10-15T09:20:45.915Z,17.27
2022-10-15T09:28:52.042Z,17.25
2022-10-15T09:32:32.497Z,17.31
2022-10-15T10:13:44.551Z,18.47
2022-10-15T11:10:25.330Z,18.29
2022-10-15T11:13:01.265Z,18.36
2022-10-15T11:15:49.169Z,18.20
2022-10-15T11:18:31.667Z,18.26
2022-10-15T11:21:28.464Z,18.23
2022-10-15T11:24:16.463Z,18.07
2022-10-15T11:27:15.522Z,18.06
2022-10-15T11:29:59.402Z,18.03
2022-10-15T11:32:54.972Z,18.01
2022-10-15T11:35:57.698Z,18.20
2022-10-15T11:38:47.705Z,18.16
2022-10-15T11:41:37.058Z,18.23
2022-10-15T11:44:29.600Z,18.43
2022-10-15T11:47:29.080Z,18.64
2022-10-15T11:50:11.803Z,18.66
2022-10-15T11:53:09.740Z,18.67
2022-10-15T11:56:18.926Z,18.34
2022-10-15T11:58:55.324Z,18.25
2022-10-15T12:01:40.889Z,18.23
2022-10-15T12:04:32.540Z,18.16
2022-10-15T12:07:03.689Z,18.20
2022-10-15T12:09:43.405Z,18.26
2022-10-15T12:12:45.460Z,18.16
2022-10-15T12:15:15.208Z,18.03
2022-10-15T12:18:01.215Z,17.93
2022-10-15T12:20:34.322Z,17.85
2022-10-15T12:23:03.494Z,17.92
2022-10-15T12:25:44.907Z,17.90
2022-10-15T12:28:27.419Z,17.77
2022-10-15T12:31:01.923Z,17.80
2022-10-15T12:33:49.130Z,17.97
2022-10-15T12:36:30.205Z,17.91
2022-10-15T12:39:27.912Z,17.91
2022-10-15T12:42:22.360Z,17.74
2022-10-15T12:44:50.451Z,17.75
2022-10-15T12:48:09.251Z,17.82
2022-10-15T12:50:37.418Z,17.69
2022-10-15T12:53:33.116Z,17.74
2022-10-15T12:56:12.369Z,17.69
2022-10-15T12:58:54.488Z,17.85
2022-10-15T13:01:21.359Z,17.93
2022-10-15T13:03:51.401Z,17.71
2022-10-15T13:06:32.186Z,17.90
2022-10-15T13:09:11.488Z,17.79
2022-10-15T13:11:47.962Z,17.85
2022-10-15T13:14:38.786Z,17.70
2022-10-15T13:17:18.993Z,17.74
2022-10-15T13:20:04.675Z,17.82
2022-10-15T13:22:36.390Z,17.76
2022-10-15T13:25:14.699Z,17.72
2022-10-15T13:27:47.674Z,17.57
2022-10-15T13:30:16.801Z,17.71
2022-10-15T13:32:52.662Z,17.64
2022-10-15T13:35:29.590Z,17.56
2022-10-15T13:38:01.963Z,17.49
2022-10-15T13:40:54.865Z,17.68
2022-10-15T13:43:26.603Z,17.67
2022-10-15T13:46:00.093Z,17.48
2022-10-15T13:48:32.688Z,17.40
2022-10-15T13:51:06.262Z,17.38
2022-10-15T13:53:37.893Z,17.41
2022-10-15T13:56:30.050Z,17.56
2022-10-15T13:59:00.961Z,17.65
2022-10-15T14:01:30.062Z,17.61
2022-10-15T14:04:01.027Z,17.64
2022-10-15T14:06:30.820Z,17.65
2022-10-15T14:09:01.370Z,17.76
2022-10-15T14:11:35.027Z,17.65
2022-10-15T14:14:02.801Z,17.87
2022-10-15T14:16:41.671Z,17.76
2022-10-15T14:19:29.823Z,17.86
2022-10-15T14:22:00.861Z,17.70
2022-10-15T14:24:33.495Z,17.63
2022-10-15T14:27:14.934Z,17.88
2022-10-15T14:29:59.476Z,17.73
2022-10-15T14:32:51.685Z,17.67
2022-10-15T14:35:37.815Z,17.68
2022-10-15T14:38:15.791Z,17.62
2022-10-15T14:40:58.245Z,17.59
2022-10-15T14:43:33.117Z,17.55
2022-10-15T14:46:03.139Z,17.58
2022-10-15T14:48:38.067Z,17.65
2022-10-15T14:51:24.052Z,17.70
2022-10-15T14:53:52.898Z,17.70
2022-10-15T14:56:26.103Z,17.75
2022-10-15T14:58:56.783Z,17.86
2022-10-15T15:01:25.209Z,17.92
2022-10-15T15:03:54.862Z,17.95
2022-10-15T15:06:23.116Z,17.98
2022-10-15T15:08:53.357Z,17.95
2022-10-15T15:11:26.518Z,17.98
2022-10-15T15:13:55.423Z,17.88
2022-10-15T15:16:22.434Z,17.89
2022-10-15T15:18:49.394Z,17.87
2022-10-15T15:21:22.485Z,17.76
2022-10-15T15:23:49.791Z,17.81
2022-10-15T15:26:17.700Z,17.85
2022-10-15T15:28:48.653Z,17.97
2022-10-15T15:31:18.717Z,18.03
2022-10-15T15:33:49.592Z,18.11
2022-10-15T15:36:23.343Z,17.99
2022-10-15T15:38:50.666Z,17.99
2022-10-15T15:41:24.826Z,17.99
2022-10-15T15:43:54.926Z,17.89
2022-10-15T15:46:23.930Z,17.81
2022-10-15T15:48:51.968Z,17.84
2022-10-15T15:51:31.962Z,17.65
2022-10-15T15:54:02.095Z,17.76
2022-10-15T15:56:29.046Z,17.90
2022-10-15T15:58:57.983Z,17.79
2022-10-15T16:01:25.994Z,17.72
2022-10-15T16:03:52.993Z,17.69
2022-10-15T16:06:19.875Z,17.64
2022-10-15T16:08:46.728Z,17.68
2022-10-15T16:11:14.646Z,17.65
2022-10-15T16:13:43.104Z,17.60
2022-10-15T16:16:10.728Z,17.71
2022-10-15T16:18:38.640Z,17.85
2022-10-15T16:21:05.884Z,17.59
2022-10-15T16:23:34.740Z,17.71
2022-10-15T16:26:01.630Z,17.77
2022-10-15T16:28:28.734Z,17.77
2022-10-15T16:31:18.034Z,17.83
2022-10-15T16:33:45.663Z,17.63
2022-10-15T16:36:14.576Z,17.62
2022-10-15T16:38:43.762Z,17.55
2022-10-15T16:41:13.667Z,17.46
2022-10-15T16:43:41.982Z,17.47
2022-10-15T16:46:09.051Z,17.59
2022-10-15T16:48:36.003Z,17.63
2022-10-15T16:51:15.810Z,17.69
2022-10-15T16:53:46.214Z,17.66
2022-10-15T16:56:28.877Z,17.57
2022-10-15T16:58:56.935Z,17.49
2022-10-15T17:01:29.111Z,17.48
2022-10-15T17:03:58.044Z,17.51
2022-10-15T17:06:29.593Z,17.55
2022-10-15T17:09:03.895Z,17.50
2022-10-15T17:11:42.025Z,17.63
2022-10-15T17:14:15.134Z,17.39
2022-10-15T17:16:48.918Z,17.48
2022-10-15T17:19:27.800Z,17.47
2022-10-15T17:21:57.551Z,17.47
2022-10-15T17:24:24.446Z,17.54
2022-10-15T17:26:52.349Z,17.54
2022-10-15T17:29:20.791Z,17.49
2022-10-15T17:31:49.299Z,17.63
2022-10-15T17:34:17.238Z,17.53
2022-10-15T17:36:48.696Z,17.61
2022-10-15T17:39:21.686Z,17.70
2022-10-15T17:41:51.137Z,17.61
2022-10-15T17:44:20.426Z,17.71
2022-10-15T17:49:19.511Z,17.51
2022-10-15T17:51:46.882Z,17.54
2022-10-15T17:54:14.099Z,17.70
2022-10-15T17:56:41.249Z,17.52
2022-10-15T17:59:10.997Z,17.65
2022-10-15T18:01:59.561Z,17.48
2022-10-15T18:04:29.302Z,17.73
2022-10-15T18:06:57.524Z,17.66
2022-10-15T18:09:27.109Z,17.58
2022-10-15T18:11:54.040Z,17.60
2022-10-15T18:16:53.650Z,17.65
2022-10-15T18:19:20.844Z,17.66
2022-10-15T18:21:49.723Z,17.62
2022-10-15T18:24:21.650Z,17.57
2022-10-15T18:26:50.591Z,17.56
2022-10-15T18:29:17.644Z,17.53
2022-10-15T18:31:44.573Z,17.76
2022-10-15T18:34:11.477Z,17.61
2022-10-15T18:36:41.507Z,17.70
2022-10-15T18:39:08.446Z,17.84
2022-10-15T18:41:37.420Z,17.86
2022-10-15T18:44:08.482Z,17.64
2022-10-15T18:46:35.807Z,17.78
2022-10-15T18:49:04.034Z,17.71
2022-10-15T18:51:32.106Z,17.79
2022-10-15T18:54:00.423Z,17.75
2022-10-15T18:56:27.868Z,17.84
2022-10-15T18:58:55.016Z,17.69
2022-10-15T19:01:30.055Z,17.63
2022-10-15T19:04:00.074Z,17.59
2022-10-15T19:06:37.435Z,17.55
2022-10-15T19:09:10.046Z,17.59
2022-10-15T19:11:39.976Z,17.55
2022-10-15T19:14:08.779Z,17.52
2022-10-15T19:16:36.161Z,17.44
2022-10-15T19:19:05.535Z,17.43
2022-10-15T19:21:32.546Z,17.71
2022-10-15T19:24:00.699Z,17.73
2022-10-15T19:26:29.933Z,17.69
2022-10-15T19:28:57.580Z,17.55
2022-10-15T19:31:28.636Z,17.53
2022-10-15T19:33:58.095Z,17.44
2022-10-15T19:36:40.716Z,17.42
2022-10-15T19:39:12.309Z,17.44
2022-10-15T19:41:42.209Z,17.46
2022-10-15T19:44:10.710Z,17.35
2022-10-15T19:46:38.212Z,17.36
2022-10-15T19:49:06.275Z,17.65
2022-10-15T19:51:34.160Z,17.50
2022-10-15T19:54:01.065Z,17.62
2022-10-15T19:56:28.555Z,17.40
2022-10-15T19:59:01.591Z,17.37
2022-10-15T20:01:30.284Z,17.41
2022-10-15T20:04:06.456Z,17.42
2022-10-15T20:06:38.343Z,17.41
2022-10-15T20:09:07.244Z,17.44
2022-10-15T20:11:34.529Z,17.39
2022-10-15T20:14:02.062Z,17.60
2022-10-15T20:16:33.158Z,17.56
2022-10-15T20:19:05.567Z,17.31
2022-10-15T20:21:32.814Z,17.25
2022-10-15T20:24:03.942Z,17.27
2022-10-15T20:26:31.319Z,17.41
2022-10-15T20:28:58.535Z,17.33
2022-10-15T20:31:28.786Z,17.40
2022-10-15T20:33:55.822Z,17.51
2022-10-15T20:36:24.347Z,17.45
2022-10-15T20:38:52.171Z,17.35
2022-10-15T20:41:20.061Z,17.27
2022-10-15T20:43:53.864Z,17.36
2022-10-15T20:46:32.776Z,17.37
2022-10-15T20:49:08.765Z,17.33
2022-10-15T20:51:37.823Z,17.25
2022-10-15T20:54:05.052Z,17.31
2022-10-15T20:56:32.107Z,17.37
2022-10-15T20:58:59.006Z,17.40
2022-10-15T21:01:26.057Z,17.25
2022-10-15T21:03:53.091Z,17.25
2022-10-15T21:06:20.626Z,17.18
2022-10-15T21:08:47.884Z,17.14
2022-10-15T21:11:15.167Z,17.27
2022-10-15T21:13:42.209Z,17.26
2022-10-15T21:16:10.854Z,17.28
2022-10-15T21:18:38.202Z,17.09
2022-10-15T21:21:12.521Z,17.26
2022-10-15T21:23:42.017Z,17.11
2022-10-15T21:26:15.763Z,17.13
2022-10-15T21:28:43.648Z,17.09
2022-10-15T21:31:14.314Z,17.28
2022-10-15T21:33:42.174Z,17.20
2022-10-15T21:36:24.431Z,17.24
2022-10-15T21:38:58.768Z,17.20
2022-10-15T21:41:28.161Z,17.21
2022-10-15T21:43:55.150Z,17.20
2022-10-15T21:46:22.321Z,17.18
2022-10-15T21:48:49.788Z,17.19
2022-10-15T21:51:21.469Z,17.34
2022-10-15T21:53:48.443Z,17.07
2022-10-15T21:56:15.815Z,17.29
2022-10-15T21:58:43.055Z,17.01
2022-10-15T22:01:21.798Z,17.09
2022-10-15T22:03:57.066Z,17.10
2022-10-15T22:06:24.080Z,17.20
2022-10-15T22:08:51.159Z,17.20
2022-10-15T22:11:28.422Z,17.27
2022-10-15T22:13:59.726Z,17.36
2022-10-15T22:16:28.200Z,17.20
2022-10-15T22:18:56.364Z,17.23
2022-10-15T22:21:28.519Z,17.16
2022-10-15T22:24:01.976Z,17.11
2022-10-15T22:26:36.459Z,17.16
2022-10-15T22:29:06.066Z,17.08
2022-10-15T22:31:33.298Z,17.07
2022-10-15T22:34:00.482Z,17.00
2022-10-15T22:36:30.377Z,17.11
2022-10-15T22:39:05.212Z,17.19
2022-10-15T22:41:42.011Z,17.12
2022-10-15T22:44:13.793Z,17.24
2022-10-15T22:46:46.075Z,17.11
2022-10-15T22:49:14.277Z,17.08
2022-10-15T22:51:42.000Z,17.06
2022-10-15T22:54:09.129Z,17.05
2022-10-15T22:56:36.965Z,17.00
2022-10-15T22:59:05.073Z,17.09
2022-10-15T23:01:34.556Z,16.99
2022-10-15T23:04:05.442Z,17.13
2022-10-15T23:06:36.815Z,17.05
2022-10-15T23:09:06.592Z,16.92
2022-10-15T23:11:37.598Z,16.98
2022-10-15T23:14:14.420Z,17.02
2022-10-15T23:16:44.998Z,17.08
2022-10-15T23:19:21.906Z,17.18
2022-10-15T23:21:57.666Z,17.17
2022-10-15T23:24:26.984Z,17.00
2022-10-15T23:26:54.093Z,17.00
2022-10-15T23:29:24.314Z,16.92
2022-10-15T23:31:52.136Z,16.93
2022-10-15T23:34:26.016Z,16.97
2022-10-15T23:36:53.507Z,16.98
2022-10-15T23:39:25.718Z,17.03
2022-10-15T23:41:54.201Z,16.90
2022-10-15T23:44:21.566Z,16.90
2022-10-15T23:46:48.572Z,16.83
2022-10-15T23:49:15.479Z,16.84
2022-10-15T23:51:42.504Z,16.89
2022-10-15T23:54:16.231Z,16.87
2022-10-15T23:56:43.943Z,16.95
2022-10-15T23:59:10.895Z,16.91
